Time;durP1;ratioP1;P1;durP2;ratioP2;P2;SDS_P1;SDS_P2;PMS_P1;PMS_P2;Temp;Humidity;BMP_temperature;BMP_pressure;BME280_temperature;BME280_humidity;BME280_pressure;Samples;Min_cycle;Max_cycle;Signal;HPM_P1;HPM_P2
2022/07/18 00:01:03;;;;;;;2.17;1.53;;;;;;;;;;5041945;28;86915;-46
2022/07/18 00:03:31;;;;;;;2.70;1.90;;;;;;;;;;5041211;28;87130;-47
2022/07/18 00:06:00;;;;;;;3.23;1.97;;;;;;;;;;5033496;28;89001;-47
2022/07/18 00:08:28;;;;;;;3.37;1.80;;;;;;;;;;5014154;28;88882;-47
2022/07/18 00:10:56;;;;;;;2.37;1.83;;;;;;;;;;5024447;28;87132;-47
2022/07/18 00:13:26;;;;;;;2.53;2.03;;;;;;;;;;5025160;28;87091;-47
2022/07/18 00:15:56;;;;;;;2.70;1.50;;;;;;;;;;5031714;28;89059;-47
2022/07/18 00:18:25;;;;;;;4.20;1.87;;;;;;;;;;5024744;28;87739;-47
2022/07/18 00:20:54;;;;;;;3.13;2.17;;;;;;;;;;5041005;28;87060;-47
2022/07/18 00:23:22;;;;;;;2.87;1.43;;;;;;;;;;5008318;28;86280;-47
2022/07/18 00:25:50;;;;;;;4.00;1.90;;;;;;;;;;5022349;28;88115;-47
2022/07/18 00:28:18;;;;;;;2.87;1.87;;;;;;;;;;5036877;28;88435;-47
2022/07/18 00:30:47;;;;;;;4.57;2.10;;;;;;;;;;5041363;28;87958;-47
2022/07/18 00:33:22;;;;;;;3.63;1.90;;;;;;;;;;5023725;28;88086;-47
2022/07/18 00:35:51;;;;;;;3.00;1.57;;;;;;;;;;5021456;28;88173;-47
2022/07/18 00:38:19;;;;;;;2.70;1.60;;;;;;;;;;5021836;28;88830;-47
2022/07/18 00:40:48;;;;;;;3.10;1.77;;;;;;;;;;5023237;28;86999;-47
2022/07/18 00:43:18;;;;;;;3.63;2.10;;;;;;;;;;5023035;28;87427;-47
2022/07/18 00:45:50;;;;;;;4.07;1.90;;;;;;;;;;5021646;28;87063;-48
2022/07/18 00:48:20;;;;;;;1.93;1.53;;;;;;;;;;5024837;28;87872;-47
2022/07/18 00:50:48;;;;;;;3.90;2.20;;;;;;;;;;5042109;28;87233;-47
2022/07/18 00:53:16;;;;;;;5.00;1.73;;;;;;;;;;5029573;28;87016;-47
2022/07/18 00:55:48;;;;;;;4.50;1.77;;;;;;;;;;5032036;28;89002;-47
2022/07/18 00:58:18;;;;;;;2.07;1.60;;;;;;;;;;5042128;28;89801;-48
2022/07/18 01:03:33;;;;;;;3.37;1.63;;;;;;;;;;5008831;28;87021;-47
2022/07/18 01:06:03;;;;;;;2.50;1.67;;;;;;;;;;5042335;28;89132;-47
2022/07/18 01:08:35;;;;;;;3.37;1.63;;;;;;;;;;5030118;27;87058;-46
2022/07/18 01:11:03;;;;;;;4.10;1.63;;;;;;;;;;5024930;28;87116;-47
2022/07/18 01:13:32;;;;;;;3.63;1.97;;;;;;;;;;5029043;28;86246;-47
2022/07/18 01:16:01;;;;;;;2.10;1.70;;;;;;;;;;5039755;28;88394;-47
2022/07/18 01:18:30;;;;;;;3.03;1.60;;;;;;;;;;5037124;28;88912;-47
2022/07/18 01:20:59;;;;;;;2.03;1.50;;;;;;;;;;5034590;27;88041;-47
2022/07/18 01:23:27;;;;;;;3.80;2.20;;;;;;;;;;5042401;28;87107;-47
2022/07/18 01:25:56;;;;;;;3.63;1.50;;;;;;;;;;5038156;27;88436;-47
2022/07/18 01:28:26;;;;;;;2.93;1.70;;;;;;;;;;5040665;27;88839;-46
2022/07/18 01:30:54;;;;;;;2.90;1.80;;;;;;;;;;5042234;27;86990;-47
2022/07/18 01:33:24;;;;;;;3.27;1.53;;;;;;;;;;5023290;28;87346;-47
2022/07/18 01:35:52;;;;;;;3.57;1.83;;;;;;;;;;5024195;28;88166;-47
2022/07/18 01:38:22;;;;;;;2.40;2.03;;;;;;;;;;5022513;28;87813;-48
2022/07/18 01:40:50;;;;;;;2.03;1.37;;;;;;;;;;5021543;28;87108;-48
2022/07/18 01:43:23;;;;;;;4.67;1.80;;;;;;;;;;5024415;28;87213;-47
2022/07/18 01:45:52;;;;;;;2.93;1.80;;;;;;;;;;5040938;28;87945;-47
2022/07/18 01:48:22;;;;;;;2.30;1.60;;;;;;;;;;5041881;27;88746;-47
2022/07/18 01:50:51;;;;;;;3.03;1.87;;;;;;;;;;5038441;28;87037;-47
2022/07/18 01:53:19;;;;;;;4.53;1.80;;;;;;;;;;5029172;28;87007;-47
2022/07/18 01:55:49;;;;;;;2.57;1.93;;;;;;;;;;5041879;28;88324;-46
2022/07/18 01:58:19;;;;;;;3.23;1.80;;;;;;;;;;5039418;28;87892;-47
2022/07/18 02:00:47;;;;;;;2.33;1.50;;;;;;;;;;5040316;28;87027;-47
2022/07/18 02:03:15;;;;;;;4.57;2.60;;;;;;;;;;5026453;28;86436;-47
2022/07/18 02:05:43;;;;;;;4.27;2.10;;;;;;;;;;5020820;28;88666;-47
2022/07/18 02:08:12;;;;;;;3.63;2.50;;;;;;;;;;5020393;28;88016;-47
2022/07/18 02:10:40;;;;;;;2.03;1.60;;;;;;;;;;5021668;28;88149;-47
2022/07/18 02:13:10;;;;;;;5.73;2.63;;;;;;;;;;5020848;28;87125;-47
2022/07/18 02:15:38;;;;;;;5.83;2.50;;;;;;;;;;5021063;28;88998;-46
2022/07/18 02:18:06;;;;;;;2.90;2.10;;;;;;;;;;5021262;28;87763;-47
2022/07/18 02:20:35;;;;;;;3.10;1.70;;;;;;;;;;5021548;28;87121;-47
2022/07/18 02:23:03;;;;;;;2.67;2.23;;;;;;;;;;5020735;28;87137;-46
2022/07/18 02:25:31;;;;;;;3.40;2.27;;;;;;;;;;5020610;28;88327;-47
2022/07/18 02:28:01;;;;;;;3.23;2.50;;;;;;;;;;5019483;28;86601;-47
2022/07/18 02:30:31;;;;;;;3.07;2.30;;;;;;;;;;5019616;28;87022;-47
2022/07/18 02:33:00;;;;;;;3.40;2.10;;;;;;;;;;5019529;28;87075;-47
2022/07/18 02:35:32;;;;;;;3.83;2.00;;;;;;;;;;5018593;28;89147;-47
2022/07/18 02:38:00;;;;;;;3.67;2.33;;;;;;;;;;5020775;28;87518;-47
2022/07/18 02:40:28;;;;;;;3.90;2.40;;;;;;;;;;5013735;28;87100;-47
2022/07/18 02:42:57;;;;;;;5.80;2.77;;;;;;;;;;5008088;28;86958;-47
2022/07/18 02:45:27;;;;;;;4.33;2.10;;;;;;;;;;5020646;28;89204;-46
2022/07/18 02:47:58;;;;;;;4.10;2.57;;;;;;;;;;5020859;28;87827;-47
2022/07/18 02:50:26;;;;;;;4.07;2.60;;;;;;;;;;5013233;28;87182;-47
2022/07/18 02:52:56;;;;;;;4.87;2.50;;;;;;;;;;5020825;28;86211;-46
2022/07/18 02:55:24;;;;;;;5.50;2.47;;;;;;;;;;5016777;28;89106;-46
2022/07/18 02:57:53;;;;;;;4.03;2.37;;;;;;;;;;5028116;28;87930;-46
2022/07/18 03:00:21;;;;;;;4.33;2.80;;;;;;;;;;5027770;28;88118;-47
2022/07/18 03:02:49;;;;;;;6.17;2.67;;;;;;;;;;5019292;28;87118;-47
2022/07/18 03:05:19;;;;;;;4.20;2.93;;;;;;;;;;5027012;28;87986;-48
2022/07/18 03:07:47;;;;;;;4.80;2.50;;;;;;;;;;5038556;28;88845;-47
2022/07/18 03:10:17;;;;;;;3.93;3.00;;;;;;;;;;5041267;28;87072;-47
2022/07/18 03:12:46;;;;;;;4.77;3.17;;;;;;;;;;5039521;28;86882;-46
2022/07/18 03:15:14;;;;;;;4.07;2.83;;;;;;;;;;5040610;28;89222;-46
2022/07/18 03:17:43;;;;;;;5.93;3.27;;;;;;;;;;5030019;28;88217;-46
2022/07/18 03:20:12;;;;;;;5.33;3.13;;;;;;;;;;5021492;28;87015;-46
2022/07/18 03:22:43;;;;;;;6.67;3.73;;;;;;;;;;5031786;28;87079;-47
2022/07/18 03:25:11;;;;;;;5.23;2.90;;;;;;;;;;5042304;27;89219;-47
2022/07/18 03:27:43;;;;;;;7.00;3.57;;;;;;;;;;5042147;27;88799;-47
2022/07/18 03:30:12;;;;;;;4.43;3.13;;;;;;;;;;5009952;28;87153;-47
2022/07/18 03:32:40;;;;;;;4.00;3.13;;;;;;;;;;5033288;28;88653;-47
2022/07/18 03:35:09;;;;;;;4.60;2.83;;;;;;;;;;5042700;28;87056;-47
2022/07/18 03:37:37;;;;;;;7.13;3.47;;;;;;;;;;5043134;28;87044;-47
2022/07/18 03:40:09;;;;;;;5.67;3.23;;;;;;;;;;5031035;28;87026;-47
2022/07/18 03:42:38;;;;;;;4.23;3.20;;;;;;;;;;5032295;28;86246;-47
2022/07/18 03:45:08;;;;;;;4.40;2.83;;;;;;;;;;5034900;28;88065;-47
2022/07/18 03:47:36;;;;;;;3.70;2.60;;;;;;;;;;5023253;28;87847;-47
2022/07/18 03:50:05;;;;;;;4.23;3.03;;;;;;;;;;5039775;28;88047;-47
2022/07/18 03:52:33;;;;;;;3.97;2.30;;;;;;;;;;5037092;28;87062;-47
2022/07/18 03:55:05;;;;;;;8.23;3.27;;;;;;;;;;5034234;28;87978;-46
2022/07/18 03:57:37;;;;;;;4.33;3.23;;;;;;;;;;5030378;28;88943;-47
2022/07/18 04:00:07;;;;;;;6.30;2.90;;;;;;;;;;5031682;28;86902;-46
2022/07/18 04:02:40;;;;;;;4.47;2.90;;;;;;;;;;5030905;28;87027;-47
2022/07/18 04:05:13;;;;;;;4.90;2.83;;;;;;;;;;5042733;27;89054;-47
2022/07/18 04:07:41;;;;;;;4.63;2.97;;;;;;;;;;5027542;28;88858;-47
2022/07/18 04:10:12;;;;;;;4.40;2.40;;;;;;;;;;5025031;27;86749;-47
2022/07/18 04:12:49;;;;;;;4.77;2.60;;;;;;;;;;5024288;28;86986;-47
2022/07/18 04:15:17;;;;;;;4.23;2.53;;;;;;;;;;5022916;28;89110;-47
2022/07/18 04:17:45;;;;;;;4.83;2.90;;;;;;;;;;5034436;27;89927;-47
2022/07/18 04:20:16;;;;;;;3.20;2.27;;;;;;;;;;5041969;28;87009;-47
2022/07/18 04:22:49;;;;;;;3.07;2.43;;;;;;;;;;5039947;28;87184;-46
2022/07/18 04:25:20;;;;;;;4.50;2.90;;;;;;;;;;5040609;28;88287;-49
2022/07/18 04:27:53;;;;;;;3.47;2.47;;;;;;;;;;5041297;28;87871;-46
2022/07/18 04:30:22;;;;;;;2.90;1.93;;;;;;;;;;5035547;27;86995;-49
2022/07/18 04:32:53;;;;;;;3.53;2.20;;;;;;;;;;5039189;28;86377;-47
2022/07/18 04:35:22;;;;;;;8.17;2.57;;;;;;;;;;5041381;27;87188;-47
2022/07/18 04:37:52;;;;;;;5.00;2.43;;;;;;;;;;5042200;28;87770;-46
2022/07/18 04:40:20;;;;;;;4.10;2.53;;;;;;;;;;5040761;28;88067;-47
2022/07/18 04:42:50;;;;;;;2.23;2.00;;;;;;;;;;5039701;27;87317;-47
2022/07/18 04:45:21;;;;;;;2.47;2.17;;;;;;;;;;5034212;28;88350;-47
2022/07/18 04:47:49;;;;;;;2.73;2.20;;;;;;;;;;5023175;28;87000;-47
2022/07/18 04:50:18;;;;;;;3.07;1.80;;;;;;;;;;5026369;28;86898;-47
2022/07/18 04:52:47;;;;;;;3.47;2.20;;;;;;;;;;5038569;27;86852;-47
2022/07/18 04:55:15;;;;;;;2.33;1.63;;;;;;;;;;5023130;27;88201;-47
2022/07/18 04:57:44;;;;;;;5.47;2.00;;;;;;;;;;5041837;28;87810;-47
2022/07/18 05:00:15;;;;;;;2.53;2.00;;;;;;;;;;5025876;28;86891;-47
2022/07/18 05:02:43;;;;;;;1.70;1.60;;;;;;;;;;5032554;28;87060;-47
2022/07/18 05:05:11;;;;;;;2.17;1.70;;;;;;;;;;5023661;27;88128;-47
2022/07/18 05:07:40;;;;;;;3.73;2.00;;;;;;;;;;5046599;27;89055;-47
2022/07/18 05:10:09;;;;;;;3.23;1.90;;;;;;;;;;5042481;28;87535;-46
2022/07/18 05:12:37;;;;;;;2.37;1.93;;;;;;;;;;5041511;28;87055;-47
2022/07/18 05:15:09;;;;;;;2.43;1.30;;;;;;;;;;5042363;28;87117;-47
2022/07/18 05:17:40;;;;;;;2.33;1.77;;;;;;;;;;5040610;28;87918;-46
2022/07/18 05:20:09;;;;;;;1.70;1.37;;;;;;;;;;5042462;28;86925;-47
2022/07/18 05:22:38;;;;;;;3.03;1.10;;;;;;;;;;5041723;28;86265;-47
2022/07/18 05:25:11;;;;;;;1.30;1.00;;;;;;;;;;5042154;28;86976;-47
2022/07/18 05:27:39;;;;;;;1.57;1.10;;;;;;;;;;5038159;28;87841;-46
2022/07/18 05:30:08;;;;;;;1.63;1.13;;;;;;;;;;5041570;28;87832;-48
2022/07/18 05:32:38;;;;;;;2.23;0.97;;;;;;;;;;5041129;28;88684;-47
2022/07/18 05:35:08;;;;;;;1.90;1.10;;;;;;;;;;5042276;28;89201;-47
2022/07/18 05:37:38;;;;;;;1.13;0.90;;;;;;;;;;5041918;28;87766;-47
2022/07/18 05:40:11;;;;;;;1.23;0.90;;;;;;;;;;5041431;28;87319;-47
2022/07/18 05:42:41;;;;;;;1.50;0.77;;;;;;;;;;5040152;28;87151;-46
2022/07/18 05:45:24;;;;;;;2.10;1.13;;;;;;;;;;5033464;28;88070;-48
2022/07/18 05:47:53;;;;;;;0.90;0.80;;;;;;;;;;5041483;28;87786;-48
2022/07/18 05:50:23;;;;;;;1.90;1.10;;;;;;;;;;5037453;28;87003;-48
2022/07/18 05:52:51;;;;;;;2.47;1.00;;;;;;;;;;5042283;28;87077;-49
2022/07/18 05:55:19;;;;;;;2.43;0.90;;;;;;;;;;5036234;28;89674;-48
2022/07/18 05:57:49;;;;;;;1.10;0.90;;;;;;;;;;5035204;28;88806;-48
2022/07/18 06:00:18;;;;;;;1.97;1.20;;;;;;;;;;5035189;28;87004;-47
2022/07/18 06:02:48;;;;;;;1.40;0.90;;;;;;;;;;5016367;28;87136;-48
2022/07/18 06:05:16;;;;;;;1.53;0.97;;;;;;;;;;5020902;28;86911;-49
2022/07/18 06:07:53;;;;;;;2.27;1.20;;;;;;;;;;5021184;28;87766;-48
2022/07/18 06:10:22;;;;;;;8.80;4.60;;;;;;;;;;5021498;28;86916;-48
2022/07/18 06:12:50;;;;;;;4.97;2.57;;;;;;;;;;5035550;28;86325;-46
2022/07/18 06:15:19;;;;;;;1.67;1.30;;;;;;;;;;5041971;28;87888;-47
2022/07/18 06:17:47;;;;;;;1.50;1.30;;;;;;;;;;5041670;28;87665;-49
2022/07/18 06:20:15;;;;;;;2.97;1.50;;;;;;;;;;5041245;28;87987;-48
2022/07/18 06:22:44;;;;;;;6.00;2.20;;;;;;;;;;5040976;28;86983;-48
2022/07/18 06:25:13;;;;;;;215.00;77.30;;;;;;;;;;5038457;28;88258;-47
2022/07/18 06:27:42;;;;;;;216.53;77.30;;;;;;;;;;5038274;28;87965;-47
2022/07/18 06:30:10;;;;;;;96.13;37.73;;;;;;;;;;5040015;28;86882;-49
2022/07/18 06:32:38;;;;;;;77.03;31.50;;;;;;;;;;5040735;28;87056;-48
2022/07/18 06:35:07;;;;;;;124.87;48.83;;;;;;;;;;5039762;28;88118;-49
2022/07/18 06:37:35;;;;;;;173.37;64.43;;;;;;;;;;5037600;28;88185;-50
2022/07/18 06:40:04;;;;;;;175.87;59.93;;;;;;;;;;5029264;28;86920;-48
2022/07/18 06:42:34;;;;;;;343.10;106.47;;;;;;;;;;5054875;27;86965;-48
2022/07/18 06:45:02;;;;;;;193.80;68.47;;;;;;;;;;5038864;27;89388;-47
2022/07/18 06:47:38;;;;;;;145.20;50.60;;;;;;;;;;5036919;28;87562;-46
2022/07/18 06:50:07;;;;;;;117.43;44.90;;;;;;;;;;5040441;28;86865;-48
2022/07/18 06:52:35;;;;;;;100.33;38.00;;;;;;;;;;5039528;28;86980;-47
2022/07/18 06:55:04;;;;;;;98.17;35.57;;;;;;;;;;5039749;27;88150;-47
2022/07/18 06:57:34;;;;;;;108.70;39.97;;;;;;;;;;5043618;28;88080;-47
2022/07/18 07:00:02;;;;;;;122.20;45.67;;;;;;;;;;5043640;28;87022;-47
2022/07/18 07:02:30;;;;;;;88.20;34.77;;;;;;;;;;5043892;28;86579;-47
2022/07/18 07:05:00;;;;;;;78.10;27.53;;;;;;;;;;5043687;28;88308;-47
2022/07/18 07:07:30;;;;;;;61.30;26.13;;;;;;;;;;5042990;28;86999;-47
2022/07/18 07:09:58;;;;;;;58.27;22.33;;;;;;;;;;5042860;28;87980;-48
2022/07/18 07:12:26;;;;;;;49.50;18.93;;;;;;;;;;5034159;28;87214;-47
2022/07/18 07:14:58;;;;;;;39.73;17.03;;;;;;;;;;5042970;28;89093;-47
2022/07/18 07:17:29;;;;;;;45.40;16.23;;;;;;;;;;5043908;28;88967;-47
2022/07/18 07:20:00;;;;;;;34.43;15.47;;;;;;;;;;5043634;28;87106;-47
2022/07/18 07:22:30;;;;;;;34.63;15.30;;;;;;;;;;5035746;28;87077;-47
2022/07/18 07:24:58;;;;;;;27.73;12.77;;;;;;;;;;5041210;28;89480;-47
2022/07/18 07:27:27;;;;;;;27.30;11.43;;;;;;;;;;5042264;28;89167;-48
2022/07/18 07:29:56;;;;;;;30.70;10.53;;;;;;;;;;5043105;28;87063;-47
2022/07/18 07:32:24;;;;;;;30.47;11.17;;;;;;;;;;5042854;28;86950;-48
2022/07/18 07:34:53;;;;;;;26.17;9.90;;;;;;;;;;5042223;28;89034;-47
2022/07/18 07:37:22;;;;;;;25.50;10.27;;;;;;;;;;5039701;28;89824;-47
2022/07/18 07:39:52;;;;;;;21.97;8.53;;;;;;;;;;5042895;28;87017;-47
2022/07/18 07:42:21;;;;;;;22.70;8.53;;;;;;;;;;5026028;28;87042;-46
2022/07/18 07:44:49;;;;;;;14.33;6.77;;;;;;;;;;5043618;28;88213;-46
2022/07/18 07:47:19;;;;;;;14.13;6.17;;;;;;;;;;5037400;28;89010;-47
2022/07/18 07:49:47;;;;;;;9.67;5.43;;;;;;;;;;5043673;28;87578;-47
2022/07/18 07:52:18;;;;;;;11.53;5.07;;;;;;;;;;5043819;28;86268;-47
2022/07/18 07:54:46;;;;;;;12.80;4.67;;;;;;;;;;5042173;28;88267;-48
2022/07/18 07:57:15;;;;;;;6.37;3.70;;;;;;;;;;5043451;28;87149;-48
2022/07/18 07:59:43;;;;;;;9.47;4.20;;;;;;;;;;5038789;28;88021;-48
2022/07/18 08:02:12;;;;;;;5.13;3.40;;;;;;;;;;5041787;28;87021;-48
2022/07/18 08:04:42;;;;;;;4.50;2.10;;;;;;;;;;5042201;27;88086;-51
2022/07/18 08:07:13;;;;;;;6.43;2.07;;;;;;;;;;5041894;28;87142;-50
2022/07/18 08:09:41;;;;;;;8.67;2.23;;;;;;;;;;5039812;28;87046;-51
2022/07/18 08:12:09;;;;;;;5.40;1.87;;;;;;;;;;5023288;28;87065;-52
2022/07/18 08:14:41;;;;;;;4.50;1.73;;;;;;;;;;5023460;28;89114;-52
2022/07/18 08:17:10;;;;;;;2.67;1.50;;;;;;;;;;5024033;28;87821;-53
2022/07/18 08:19:40;;;;;;;2.23;1.50;;;;;;;;;;5023950;28;87129;-55
2022/07/18 08:22:10;;;;;;;1.97;1.60;;;;;;;;;;5043638;28;86924;-52
2022/07/18 08:24:38;;;;;;;2.67;1.40;;;;;;;;;;5025933;28;89218;-55
2022/07/18 08:27:09;;;;;;;2.90;1.40;;;;;;;;;;5043268;28;88913;-54
2022/07/18 08:29:38;;;;;;;4.80;1.57;;;;;;;;;;5043051;27;87000;-54
2022/07/18 08:32:32;;;;;;;3.47;1.40;;;;;;;;;;5027084;28;87099;-53
2022/07/18 08:35:02;;;;;;;5.73;2.30;;;;;;;;;;5023101;28;88227;-53
2022/07/18 08:37:31;;;;;;;7.03;2.30;;;;;;;;;;5015134;28;87090;-54
2022/07/18 08:40:00;;;;;;;4.53;2.23;;;;;;;;;;5024277;28;87319;-54
2022/07/18 08:42:28;;;;;;;3.13;1.60;;;;;;;;;;5023006;28;86328;-54
2022/07/18 08:44:59;;;;;;;3.80;1.27;;;;;;;;;;5002453;28;88265;-54
2022/07/18 08:47:30;;;;;;;6.47;1.83;;;;;;;;;;5009199;28;88453;-55
2022/07/18 08:49:58;;;;;;;1.70;1.07;;;;;;;;;;5031392;28;88063;-54
2022/07/18 08:52:30;;;;;;;3.60;1.13;;;;;;;;;;5026552;28;87166;-54
2022/07/18 08:55:22;;;;;;;1.40;0.90;;;;;;;;;;5021296;28;87674;-54
2022/07/18 08:57:53;;;;;;;4.17;1.10;;;;;;;;;;5023009;28;87925;-54
2022/07/18 09:00:21;;;;;;;4.77;1.37;;;;;;;;;;5037852;28;87236;-54
2022/07/18 09:03:00;;;;;;;6.47;1.50;;;;;;;;;;5009774;28;87501;-55
2022/07/18 09:05:28;;;;;;;5.83;1.47;;;;;;;;;;5032180;28;87058;-54
2022/07/18 09:08:11;;;;;;;1.77;1.27;;;;;;;;;;5031013;28;87769;-54
2022/07/18 09:10:45;;;;;;;2.17;1.00;;;;;;;;;;5042093;28;87071;-53
2022/07/18 09:13:13;;;;;;;1.20;1.03;;;;;;;;;;5042560;28;88272;-54
2022/07/18 09:15:58;;;;;;;2.10;1.20;;;;;;;;;;5040942;28;90157;-54
2022/07/18 09:18:30;;;;;;;1.40;0.97;;;;;;;;;;5040727;27;89685;-54
2022/07/18 09:21:06;;;;;;;1.70;0.93;;;;;;;;;;5042599;28;87059;-54
2022/07/18 09:23:36;;;;;;;2.30;1.03;;;;;;;;;;5042410;28;87716;-54
2022/07/18 09:26:06;;;;;;;7.63;1.27;;;;;;;;;;5042185;28;89350;-54
2022/07/18 09:28:47;;;;;;;1.07;0.90;;;;;;;;;;5041916;28;87830;-54
2022/07/18 09:31:35;;;;;;;5.20;1.03;;;;;;;;;;5041842;28;87011;-54
2022/07/18 09:34:06;;;;;;;2.97;1.10;;;;;;;;;;5042663;28;86337;-54
2022/07/18 09:36:36;;;;;;;1.83;1.10;;;;;;;;;;5041860;28;87956;-54
2022/07/18 09:39:18;;;;;;;3.27;0.77;;;;;;;;;;5041492;28;87910;-54
2022/07/18 09:41:47;;;;;;;2.37;0.87;;;;;;;;;;5041569;28;87934;-54
2022/07/18 09:44:17;;;;;;;1.13;0.80;;;;;;;;;;5042366;28;86984;-53
2022/07/18 09:47:01;;;;;;;3.53;1.10;;;;;;;;;;5041445;28;89124;-54
2022/07/18 09:49:33;;;;;;;1.70;0.83;;;;;;;;;;5041999;28;87800;-54
2022/07/18 09:52:07;;;;;;;1.23;0.73;;;;;;;;;;5041803;28;86949;-54
2022/07/18 09:54:39;;;;;;;1.03;0.87;;;;;;;;;;5042177;28;87013;-54
2022/07/18 09:57:09;;;;;;;0.57;0.57;;;;;;;;;;5041411;28;88001;-53
2022/07/18 09:59:38;;;;;;;0.50;0.50;;;;;;;;;;5042296;28;88885;-54
2022/07/18 10:02:13;;;;;;;1.63;1.07;;;;;;;;;;5041539;28;87012;-54
2022/07/18 10:04:42;;;;;;;0.63;0.60;;;;;;;;;;5041632;28;87118;-54
2022/07/18 10:07:10;;;;;;;1.87;0.90;;;;;;;;;;5040420;28;89103;-54
2022/07/18 10:09:39;;;;;;;0.97;0.77;;;;;;;;;;5041769;28;89883;-54
2022/07/18 10:12:07;;;;;;;0.53;0.50;;;;;;;;;;5042078;28;87039;-54
2022/07/18 10:14:37;;;;;;;1.50;0.63;;;;;;;;;;5041799;28;87009;-54
2022/07/18 10:17:07;;;;;;;1.93;0.60;;;;;;;;;;5041167;28;89310;-54
2022/07/18 10:19:35;;;;;;;2.40;0.77;;;;;;;;;;5041473;28;88187;-54
2022/07/18 10:22:04;;;;;;;2.57;0.87;;;;;;;;;;5041782;28;87294;-54
2022/07/18 10:24:36;;;;;;;2.23;0.80;;;;;;;;;;5042442;28;86102;-53
2022/07/18 10:27:14;;;;;;;0.70;0.67;;;;;;;;;;5041038;28;89134;-54
2022/07/18 10:29:58;;;;;;;0.77;0.53;;;;;;;;;;5041163;28;87606;-55
2022/07/18 10:32:34;;;;;;;2.10;0.90;;;;;;;;;;5041095;28;87876;-54
2022/07/18 10:35:02;;;;;;;1.33;0.70;;;;;;;;;;5041646;28;86861;-54
2022/07/18 10:37:33;;;;;;;1.00;0.70;;;;;;;;;;5041311;28;87900;-53
2022/07/18 10:40:15;;;;;;;0.50;0.50;;;;;;;;;;5040849;28;86805;-54
2022/07/18 10:42:47;;;;;;;0.70;0.50;;;;;;;;;;5040912;28;87062;-54
2022/07/18 10:45:21;;;;;;;3.50;0.80;;;;;;;;;;5041108;28;86997;-53
2022/07/18 10:47:51;;;;;;;1.10;1.00;;;;;;;;;;5040738;28;88283;-53
2022/07/18 10:50:24;;;;;;;1.70;0.80;;;;;;;;;;5041632;28;87912;-54
2022/07/18 10:53:01;;;;;;;1.80;0.70;;;;;;;;;;5041156;28;87021;-53
2022/07/18 10:55:35;;;;;;;0.80;0.67;;;;;;;;;;5033742;28;87057;-54
2022/07/18 10:58:16;;;;;;;2.27;0.60;;;;;;;;;;5040451;28;90073;-54
2022/07/18 11:00:45;;;;;;;0.80;0.80;;;;;;;;;;5040670;28;87206;-54
2022/07/18 11:03:15;;;;;;;2.30;0.73;;;;;;;;;;5041545;28;87376;-54
2022/07/18 11:05:48;;;;;;;2.30;0.90;;;;;;;;;;5041174;28;87050;-54
2022/07/18 11:08:18;;;;;;;1.30;0.70;;;;;;;;;;5040723;28;88211;-54
2022/07/18 11:11:07;;;;;;;0.80;0.70;;;;;;;;;;5041180;28;89015;-55
2022/07/18 11:13:36;;;;;;;0.67;0.67;;;;;;;;;;5040674;28;86936;-55
2022/07/18 11:16:06;;;;;;;0.67;0.60;;;;;;;;;;5041689;28;86317;-54
2022/07/18 11:18:56;;;;;;;3.23;0.90;;;;;;;;;;5040871;28;89149;-54
2022/07/18 11:21:32;;;;;;;1.70;0.97;;;;;;;;;;5040549;28;87971;-54
2022/07/18 11:24:07;;;;;;;1.47;0.80;;;;;;;;;;5040802;28;88089;-54
2022/07/18 11:26:37;;;;;;;3.30;0.83;;;;;;;;;;5041103;28;86999;-54
2022/07/18 11:29:06;;;;;;;3.67;0.90;;;;;;;;;;5040790;28;87976;-54
2022/07/18 11:31:48;;;;;;;1.00;0.70;;;;;;;;;;5040090;28;88827;-54
2022/07/18 11:34:17;;;;;;;1.67;1.00;;;;;;;;;;5040740;28;87098;-54
2022/07/18 11:36:50;;;;;;;2.00;0.80;;;;;;;;;;5040793;28;87063;-54
2022/07/18 11:39:29;;;;;;;1.30;0.90;;;;;;;;;;5040699;28;89265;-54
2022/07/18 11:41:58;;;;;;;2.87;1.10;;;;;;;;;;5043579;28;88872;-54
2022/07/18 11:44:27;;;;;;;0.70;0.70;;;;;;;;;;5043856;28;86938;-55
2022/07/18 11:47:04;;;;;;;0.93;0.60;;;;;;;;;;5044209;28;87097;-54
2022/07/18 11:49:34;;;;;;;1.53;1.00;;;;;;;;;;5043135;28;89605;-54
2022/07/18 11:52:04;;;;;;;3.10;0.73;;;;;;;;;;5043722;28;88949;-54
2022/07/18 11:54:32;;;;;;;1.10;0.87;;;;;;;;;;5044316;28;87243;-54
2022/07/18 11:57:05;;;;;;;1.77;0.83;;;;;;;;;;5043713;28;87120;-54
2022/07/18 11:59:37;;;;;;;0.80;0.67;;;;;;;;;;5043802;28;89102;-54
2022/07/18 12:02:06;;;;;;;1.00;0.90;;;;;;;;;;5043145;28;89006;-54
2022/07/18 12:04:36;;;;;;;1.77;0.90;;;;;;;;;;5044134;28;86708;-54
2022/07/18 12:07:20;;;;;;;1.50;1.10;;;;;;;;;;5044151;28;86134;-54
2022/07/18 12:09:50;;;;;;;1.87;0.90;;;;;;;;;;5044008;28;89288;-54
2022/07/18 12:12:22;;;;;;;0.70;0.63;;;;;;;;;;5043618;28;88923;-55
2022/07/18 12:14:58;;;;;;;4.10;0.90;;;;;;;;;;5043230;28;87891;-54
2022/07/18 12:17:30;;;;;;;3.13;0.90;;;;;;;;;;5043674;28;86964;-54
2022/07/18 12:20:10;;;;;;;1.40;0.83;;;;;;;;;;5043606;28;88272;-54
2022/07/18 12:22:54;;;;;;;1.83;0.93;;;;;;;;;;5043054;28;87802;-54
2022/07/18 12:25:35;;;;;;;2.07;1.03;;;;;;;;;;5043058;28;87007;-54
2022/07/18 12:28:13;;;;;;;1.13;0.97;;;;;;;;;;5043622;28;87007;-54
2022/07/18 12:30:43;;;;;;;1.80;1.20;;;;;;;;;;5043305;28;88217;-54
2022/07/18 12:33:11;;;;;;;1.17;1.00;;;;;;;;;;5044000;28;88730;-54
2022/07/18 12:35:40;;;;;;;4.00;1.10;;;;;;;;;;5043412;28;87423;-54
2022/07/18 12:38:09;;;;;;;1.07;0.80;;;;;;;;;;5043134;28;87087;-54
2022/07/18 12:40:45;;;;;;;1.40;1.00;;;;;;;;;;5042683;28;88271;-54
2022/07/18 12:43:14;;;;;;;1.20;0.80;;;;;;;;;;5042985;28;88589;-54
2022/07/18 12:45:42;;;;;;;2.67;1.03;;;;;;;;;;5043381;28;87169;-53
2022/07/18 12:48:13;;;;;;;0.90;0.80;;;;;;;;;;5042981;28;86730;-54
2022/07/18 12:50:41;;;;;;;1.40;0.87;;;;;;;;;;5043351;28;89116;-54
2022/07/18 12:53:10;;;;;;;1.47;1.20;;;;;;;;;;5042950;27;87790;-54
2022/07/18 12:55:39;;;;;;;1.13;0.93;;;;;;;;;;5043105;28;87081;-54
2022/07/18 12:58:09;;;;;;;1.47;0.90;;;;;;;;;;5043533;28;86245;-54
2022/07/18 13:00:45;;;;;;;2.23;1.20;;;;;;;;;;5042616;28;89227;-54
2022/07/18 13:03:13;;;;;;;1.63;0.93;;;;;;;;;;5043185;28;87954;-55
2022/07/18 13:05:42;;;;;;;1.33;0.80;;;;;;;;;;5043057;28;88309;-53
2022/07/18 13:08:14;;;;;;;0.93;0.80;;;;;;;;;;5042602;28;86942;-55
2022/07/18 13:10:44;;;;;;;1.03;0.90;;;;;;;;;;5043170;28;87949;-55
2022/07/18 13:13:15;;;;;;;1.97;1.10;;;;;;;;;;5043237;28;87523;-54
2022/07/18 13:15:44;;;;;;;1.53;1.20;;;;;;;;;;5042731;28;87033;-54
2022/07/18 13:18:12;;;;;;;2.00;0.90;;;;;;;;;;5042655;28;87060;-54
2022/07/18 13:20:42;;;;;;;1.00;0.60;;;;;;;;;;5042327;28;89195;-55
2022/07/18 13:23:11;;;;;;;2.30;0.80;;;;;;;;;;5042822;28;88994;-55
2022/07/18 13:25:42;;;;;;;0.93;0.83;;;;;;;;;;5042550;28;86995;-55
2022/07/18 13:28:11;;;;;;;1.03;0.83;;;;;;;;;;5042417;28;87108;-55
2022/07/18 13:30:40;;;;;;;1.13;0.70;;;;;;;;;;5041314;28;89059;-55
2022/07/18 13:33:09;;;;;;;1.63;1.20;;;;;;;;;;5041870;28;88878;-55
2022/07/18 13:35:37;;;;;;;2.10;1.10;;;;;;;;;;5042173;28;87371;-54
2022/07/18 13:38:12;;;;;;;1.17;0.80;;;;;;;;;;5042283;28;87037;-54
2022/07/18 13:40:42;;;;;;;1.07;0.87;;;;;;;;;;5042322;28;87041;-54
2022/07/18 13:43:11;;;;;;;4.50;0.90;;;;;;;;;;5041959;28;89141;-55
2022/07/18 13:45:44;;;;;;;1.10;0.70;;;;;;;;;;5042532;28;87062;-53
2022/07/18 13:48:13;;;;;;;2.03;1.00;;;;;;;;;;5042630;28;86300;-54
2022/07/18 13:50:41;;;;;;;1.50;0.87;;;;;;;;;;5041667;28;89244;-55
2022/07/18 13:53:10;;;;;;;2.10;1.17;;;;;;;;;;5042126;28;88879;-54
2022/07/18 13:55:40;;;;;;;3.50;0.93;;;;;;;;;;5041268;28;88057;-54
2022/07/18 13:58:09;;;;;;;2.13;1.27;;;;;;;;;;5041413;28;87033;-53
2022/07/18 14:00:37;;;;;;;1.57;0.80;;;;;;;;;;5040092;28;88294;-54
2022/07/18 14:03:08;;;;;;;2.77;1.27;;;;;;;;;;5039638;28;88006;-54
2022/07/18 14:05:37;;;;;;;2.80;1.17;;;;;;;;;;5042009;28;87053;-54
2022/07/18 14:08:06;;;;;;;1.40;1.10;;;;;;;;;;5041380;28;86925;-53
2022/07/18 14:10:34;;;;;;;1.53;1.10;;;;;;;;;;5041789;28;89353;-53
2022/07/18 14:13:07;;;;;;;4.37;1.47;;;;;;;;;;5041691;28;89041;-54
2022/07/18 14:15:36;;;;;;;6.17;1.20;;;;;;;;;;5041157;28;87096;-54
2022/07/18 14:18:06;;;;;;;0.90;0.80;;;;;;;;;;5041348;28;87184;-54
2022/07/18 14:20:39;;;;;;;1.10;0.90;;;;;;;;;;5040610;28;89017;-54
2022/07/18 14:23:09;;;;;;;1.03;0.90;;;;;;;;;;5041451;28;88745;-54
2022/07/18 14:25:37;;;;;;;1.83;0.83;;;;;;;;;;5041152;28;87105;-56
2022/07/18 14:28:06;;;;;;;1.87;0.87;;;;;;;;;;5041182;28;87002;-53
2022/07/18 14:30:34;;;;;;;1.00;0.90;;;;;;;;;;5041096;28;87984;-54
2022/07/18 14:33:03;;;;;;;1.90;1.20;;;;;;;;;;5041517;28;88907;-56
2022/07/18 14:35:38;;;;;;;1.47;0.80;;;;;;;;;;5041007;28;86936;-55
2022/07/18 14:38:06;;;;;;;1.60;1.00;;;;;;;;;;5041582;28;86321;-55
2022/07/18 14:40:35;;;;;;;1.10;0.80;;;;;;;;;;5041158;28;87700;-56
2022/07/18 14:43:03;;;;;;;1.33;1.07;;;;;;;;;;5041377;28;87804;-56
2022/07/18 14:45:32;;;;;;;1.67;0.83;;;;;;;;;;5041024;28;87952;-55
2022/07/18 14:48:15;;;;;;;0.93;0.83;;;;;;;;;;5040974;28;87049;-56
2022/07/18 14:50:45;;;;;;;2.30;1.30;;;;;;;;;;5038905;28;89092;-56
2022/07/18 14:53:13;;;;;;;5.30;0.87;;;;;;;;;;5039824;28;87934;-54
2022/07/18 14:55:44;;;;;;;1.53;1.30;;;;;;;;;;5041495;28;87004;-55
2022/07/18 14:58:12;;;;;;;1.93;1.07;;;;;;;;;;5041213;28;87114;-55
2022/07/18 15:00:41;;;;;;;1.47;1.00;;;;;;;;;;5040398;28;88408;-56
2022/07/18 15:03:10;;;;;;;1.33;1.23;;;;;;;;;;5041187;28;87713;-53